EZS82EN LSGG-LICJ
Flight info
| Callsign | EZS82EN |
|---|---|
| Flight time | 1h 33m |
| Altitude | 37000 |
| Route | MEDAM DCT NITAM DCT MOGBO DCT TIDKA DCT KONER DCT DEDOM DCT ROXAN DCT RONAB DCT GIANO |
| Aircraft | A320/M-SDE3FGHIRWY/LB1 |
Departure
| Time | 2026-05-01 13:20 |
|---|---|
| Airport | Geneva International Airport (LSGG) |
Arrival
| Time | 2026-05-01 14:54 |
|---|---|
| Airport | Falcone–Borsellino Airport (LICJ) |
| Time | Latitude | Longitude | Altitude | Speed | Heading |
|---|---|---|---|---|---|
| 2026-05-01 13:11 | 46.23223 | 6.10490 | 1393 ft | 0 kts | 270° |
| 2026-05-01 13:15 | 46.23223 | 6.10487 | 1393 ft | 2 kts | 271° |
| 2026-05-01 13:16 | 46.23224 | 6.10449 | 1403 ft | 6 kts | 271° |
| 2026-05-01 13:16 | 46.23212 | 6.10375 | 1398 ft | 10 kts | 241° |
| 2026-05-01 13:16 | 46.23158 | 6.10290 | 1403 ft | 14 kts | 226° |
| 2026-05-01 13:17 | 46.22874 | 6.09861 | 1400 ft | 24 kts | 226° |
| 2026-05-01 13:17 | 46.22754 | 6.09685 | 1403 ft | 26 kts | 224° |
| 2026-05-01 13:18 | 46.22558 | 6.09352 | 1400 ft | 12 kts | 252° |
| 2026-05-01 13:18 | 46.22550 | 6.09264 | 1411 ft | 5 kts | 269° |
| 2026-05-01 13:18 | 46.22560 | 6.09189 | 1413 ft | 12 kts | 299° |
| 2026-05-01 13:18 | 46.22639 | 6.09179 | 1421 ft | 15 kts | 41° |
| 2026-05-01 13:19 | 46.22659 | 6.09208 | 1417 ft | 0 kts | 46° |
| 2026-05-01 13:19 | 46.22665 | 6.09217 | 1422 ft | 13 kts | 46° |
| 2026-05-01 13:19 | 46.23490 | 6.10432 | 1388 ft | 145 kts | 46° |
| 2026-05-01 13:20 | 46.24284 | 6.11610 | 1599 ft | 172 kts | 45° |
| 2026-05-01 13:20 | 46.25120 | 6.12856 | 2357 ft | 172 kts | 46° |
| 2026-05-01 13:20 | 46.25973 | 6.14137 | 2883 ft | 185 kts | 46° |
| 2026-05-01 13:21 | 46.27953 | 6.17070 | 3580 ft | 226 kts | 45° |
| 2026-05-01 13:21 | 46.29118 | 6.18770 | 3983 ft | 251 kts | 45° |
| 2026-05-01 13:21 | 46.30389 | 6.20628 | 4610 ft | 265 kts | 45° |
| 2026-05-01 13:21 | 46.31695 | 6.22540 | 5490 ft | 269 kts | 45° |
| 2026-05-01 13:22 | 46.33018 | 6.24481 | 6402 ft | 272 kts | 45° |
| 2026-05-01 13:22 | 46.34366 | 6.26449 | 7270 ft | 275 kts | 45° |
| 2026-05-01 13:22 | 46.35651 | 6.28526 | 8059 ft | 281 kts | 59° |
| 2026-05-01 13:22 | 46.36129 | 6.30270 | 8561 ft | 283 kts | 81° |
| 2026-05-01 13:23 | 46.36026 | 6.33109 | 9374 ft | 285 kts | 108° |
| 2026-05-01 13:23 | 46.35098 | 6.35646 | 10219 ft | 287 kts | 132° |
| 2026-05-01 13:23 | 46.33554 | 6.37396 | 10989 ft | 287 kts | 156° |
| 2026-05-01 13:23 | 46.31609 | 6.38051 | 11750 ft | 290 kts | 181° |
| 2026-05-01 13:24 | 46.29632 | 6.37410 | 12468 ft | 298 kts | 202° |
| 2026-05-01 13:24 | 46.27668 | 6.36122 | 12709 ft | 321 kts | 204° |
| 2026-05-01 13:24 | 46.25603 | 6.34694 | 13187 ft | 334 kts | 205° |
| 2026-05-01 13:25 | 46.21339 | 6.31770 | 14501 ft | 342 kts | 200° |
| 2026-05-01 13:25 | 46.19051 | 6.30886 | 15126 ft | 345 kts | 187° |
| 2026-05-01 13:25 | 46.16655 | 6.30642 | 15779 ft | 347 kts | 181° |
| 2026-05-01 13:25 | 46.14226 | 6.30506 | 16434 ft | 350 kts | 181° |
| 2026-05-01 13:26 | 46.11777 | 6.30367 | 17084 ft | 353 kts | 181° |
| 2026-05-01 13:26 | 46.09311 | 6.30226 | 17734 ft | 356 kts | 181° |
| 2026-05-01 13:26 | 46.06822 | 6.30082 | 18378 ft | 359 kts | 181° |
| 2026-05-01 13:26 | 46.04313 | 6.29934 | 18940 ft | 362 kts | 181° |
| 2026-05-01 13:27 | 46.01787 | 6.29787 | 19471 ft | 365 kts | 181° |
| 2026-05-01 13:27 | 45.99234 | 6.29639 | 19983 ft | 368 kts | 181° |
| 2026-05-01 13:27 | 45.94096 | 6.29338 | 21034 ft | 374 kts | 181° |
| 2026-05-01 13:28 | 45.88907 | 6.30253 | 22047 ft | 379 kts | 161° |
| 2026-05-01 13:28 | 45.86489 | 6.31820 | 22544 ft | 382 kts | 149° |
| 2026-05-01 13:29 | 45.82138 | 6.36330 | 23483 ft | 389 kts | 143° |
| 2026-05-01 13:29 | 45.77764 | 6.40974 | 24247 ft | 397 kts | 143° |
| 2026-05-01 13:30 | 45.68781 | 6.50458 | 25845 ft | 406 kts | 144° |
| 2026-05-01 13:31 | 45.64210 | 6.55276 | 26627 ft | 410 kts | 144° |
| 2026-05-01 13:31 | 45.57235 | 6.62607 | 27692 ft | 419 kts | 144° |
| 2026-05-01 13:32 | 45.52536 | 6.67545 | 28380 ft | 425 kts | 143° |
| 2026-05-01 13:33 | 45.45302 | 6.75110 | 29422 ft | 433 kts | 144° |
| 2026-05-01 13:33 | 45.40368 | 6.80126 | 30083 ft | 438 kts | 145° |
| 2026-05-01 13:34 | 45.35336 | 6.85130 | 30691 ft | 443 kts | 146° |
| 2026-05-01 13:34 | 45.30282 | 6.90159 | 31172 ft | 448 kts | 145° |
| 2026-05-01 13:35 | 45.25284 | 6.95584 | 31629 ft | 455 kts | 136° |
| 2026-05-01 13:35 | 45.23013 | 6.98739 | 31923 ft | 455 kts | 136° |
| 2026-05-01 13:35 | 45.18512 | 7.04951 | 32698 ft | 452 kts | 136° |
| 2026-05-01 13:36 | 45.16250 | 7.08058 | 33020 ft | 452 kts | 136° |
| 2026-05-01 13:36 | 45.13982 | 7.11161 | 33289 ft | 454 kts | 136° |
| 2026-05-01 13:36 | 45.09658 | 7.17670 | 33909 ft | 455 kts | 125° |
| 2026-05-01 13:37 | 45.07849 | 7.21334 | 34247 ft | 455 kts | 124° |
| 2026-05-01 13:37 | 45.06034 | 7.25006 | 34560 ft | 454 kts | 125° |
| 2026-05-01 13:37 | 45.04217 | 7.28659 | 34843 ft | 454 kts | 125° |
| 2026-05-01 13:37 | 45.02397 | 7.32306 | 35113 ft | 454 kts | 125° |
| 2026-05-01 13:38 | 44.98755 | 7.39599 | 35673 ft | 453 kts | 126° |
| 2026-05-01 13:38 | 44.96767 | 7.42994 | 35904 ft | 453 kts | 132° |
| 2026-05-01 13:38 | 44.94647 | 7.46293 | 36134 ft | 453 kts | 132° |
| 2026-05-01 13:39 | 44.92524 | 7.49591 | 36343 ft | 454 kts | 132° |
| 2026-05-01 13:39 | 44.90398 | 7.52891 | 36546 ft | 455 kts | 132° |
| 2026-05-01 13:39 | 44.88262 | 7.56203 | 36767 ft | 455 kts | 132° |
| 2026-05-01 13:39 | 44.86123 | 7.59517 | 36990 ft | 455 kts | 132° |
| 2026-05-01 13:40 | 44.84019 | 7.62777 | 37225 ft | 455 kts | 132° |
| 2026-05-01 13:40 | 44.81892 | 7.66069 | 37353 ft | 454 kts | 132° |
| 2026-05-01 13:40 | 44.79769 | 7.69347 | 37394 ft | 452 kts | 132° |
| 2026-05-01 13:41 | 44.75520 | 7.75881 | 37386 ft | 451 kts | 132° |
| 2026-05-01 13:41 | 44.71267 | 7.82423 | 37390 ft | 452 kts | 132° |
| 2026-05-01 13:42 | 44.67040 | 7.88910 | 37380 ft | 453 kts | 132° |
| 2026-05-01 13:42 | 44.62770 | 7.95451 | 37353 ft | 453 kts | 132° |
| 2026-05-01 13:43 | 44.58493 | 8.01988 | 37358 ft | 453 kts | 131° |
| 2026-05-01 13:43 | 44.54254 | 8.08449 | 37350 ft | 453 kts | 131° |
| 2026-05-01 13:44 | 44.49972 | 8.14950 | 37353 ft | 452 kts | 132° |
| 2026-05-01 13:44 | 44.45693 | 8.21427 | 37334 ft | 453 kts | 132° |
| 2026-05-01 13:45 | 44.41429 | 8.27885 | 37335 ft | 453 kts | 132° |
| 2026-05-01 13:45 | 44.37160 | 8.34336 | 37338 ft | 453 kts | 132° |
| 2026-05-01 13:46 | 44.32869 | 8.40795 | 37333 ft | 453 kts | 131° |
| 2026-05-01 13:46 | 44.28566 | 8.47248 | 37323 ft | 453 kts | 131° |
| 2026-05-01 13:47 | 44.24287 | 8.53657 | 37311 ft | 454 kts | 131° |
| 2026-05-01 13:47 | 44.19977 | 8.60110 | 37304 ft | 454 kts | 131° |
| 2026-05-01 13:48 | 44.15670 | 8.66526 | 37308 ft | 454 kts | 131° |
| 2026-05-01 13:48 | 44.11342 | 8.72983 | 37320 ft | 454 kts | 131° |
| 2026-05-01 13:49 | 44.07014 | 8.79417 | 37310 ft | 455 kts | 131° |
| 2026-05-01 13:49 | 44.02701 | 8.85786 | 37303 ft | 456 kts | 131° |
| 2026-05-01 13:50 | 43.98351 | 8.92214 | 37301 ft | 456 kts | 131° |
| 2026-05-01 13:50 | 43.93996 | 8.98642 | 37300 ft | 456 kts | 131° |
| 2026-05-01 13:51 | 43.89663 | 9.05023 | 37303 ft | 456 kts | 131° |
| 2026-05-01 13:51 | 43.85296 | 9.11440 | 37320 ft | 457 kts | 131° |
| 2026-05-01 13:52 | 43.80911 | 9.17842 | 37301 ft | 458 kts | 131° |
| 2026-05-01 13:52 | 43.76129 | 9.23652 | 37299 ft | 460 kts | 138° |
| 2026-05-01 13:53 | 43.71189 | 9.29333 | 37303 ft | 461 kts | 138° |
| 2026-05-01 13:53 | 43.63782 | 9.37808 | 37302 ft | 462 kts | 139° |
| 2026-05-01 13:54 | 43.58819 | 9.43475 | 37303 ft | 463 kts | 138° |
| 2026-05-01 13:54 | 43.53877 | 9.49114 | 37322 ft | 463 kts | 138° |
| 2026-05-01 13:55 | 43.48604 | 9.54255 | 37307 ft | 466 kts | 152° |
| 2026-05-01 13:55 | 43.42750 | 9.58154 | 37286 ft | 467 kts | 153° |
| 2026-05-01 13:56 | 43.36916 | 9.62022 | 37276 ft | 468 kts | 153° |
| 2026-05-01 13:56 | 43.31030 | 9.65933 | 37280 ft | 470 kts | 153° |
| 2026-05-01 13:57 | 43.26117 | 9.69184 | 37300 ft | 471 kts | 153° |
| 2026-05-01 13:57 | 43.19218 | 9.73723 | 37292 ft | 472 kts | 153° |
| 2026-05-01 13:58 | 43.13288 | 9.77643 | 37291 ft | 472 kts | 153° |
| 2026-05-01 13:58 | 43.07384 | 9.81529 | 37300 ft | 473 kts | 153° |
| 2026-05-01 13:59 | 43.01446 | 9.85420 | 37310 ft | 474 kts | 153° |
| 2026-05-01 13:59 | 42.95487 | 9.89320 | 37282 ft | 475 kts | 153° |
| 2026-05-01 14:00 | 42.89508 | 9.93233 | 37272 ft | 476 kts | 153° |
| 2026-05-01 14:00 | 42.83525 | 9.97147 | 37269 ft | 477 kts | 153° |
| 2026-05-01 14:01 | 42.77567 | 10.01020 | 37262 ft | 477 kts | 153° |
| 2026-05-01 14:01 | 42.71560 | 10.04904 | 37269 ft | 478 kts | 153° |
| 2026-05-01 14:02 | 42.65540 | 10.08797 | 37271 ft | 478 kts | 153° |
| 2026-05-01 14:02 | 42.59524 | 10.12687 | 37280 ft | 479 kts | 153° |
| 2026-05-01 14:03 | 42.53535 | 10.16558 | 37275 ft | 479 kts | 154° |
| 2026-05-01 14:03 | 42.47505 | 10.20439 | 37304 ft | 479 kts | 154° |
| 2026-05-01 14:04 | 42.41457 | 10.24320 | 37284 ft | 480 kts | 153° |
| 2026-05-01 14:04 | 42.36456 | 10.27530 | 37275 ft | 481 kts | 153° |
| 2026-05-01 14:05 | 42.29364 | 10.32072 | 37267 ft | 482 kts | 153° |
| 2026-05-01 14:05 | 42.23323 | 10.35915 | 37271 ft | 483 kts | 153° |
| 2026-05-01 14:06 | 42.17236 | 10.39787 | 37279 ft | 483 kts | 153° |
| 2026-05-01 14:06 | 42.11155 | 10.43651 | 37265 ft | 483 kts | 154° |
| 2026-05-01 14:07 | 42.05058 | 10.47472 | 37266 ft | 483 kts | 154° |
| 2026-05-01 14:08 | 41.96923 | 10.52492 | 37264 ft | 483 kts | 154° |
| 2026-05-01 14:08 | 41.90842 | 10.56238 | 37270 ft | 483 kts | 155° |
| 2026-05-01 14:09 | 41.84735 | 10.60014 | 37276 ft | 484 kts | 154° |
| 2026-05-01 14:09 | 41.78608 | 10.63809 | 37248 ft | 485 kts | 154° |
| 2026-05-01 14:10 | 41.72466 | 10.67583 | 37242 ft | 486 kts | 154° |
| 2026-05-01 14:10 | 41.66343 | 10.71334 | 37241 ft | 486 kts | 155° |
| 2026-05-01 14:11 | 41.60190 | 10.75099 | 37249 ft | 486 kts | 155° |
| 2026-05-01 14:11 | 41.50970 | 10.80729 | 37255 ft | 486 kts | 155° |
| 2026-05-01 14:12 | 41.44816 | 10.84481 | 37245 ft | 485 kts | 155° |
| 2026-05-01 14:12 | 41.38665 | 10.88217 | 37234 ft | 485 kts | 155° |
| 2026-05-01 14:13 | 41.32552 | 10.91929 | 37238 ft | 485 kts | 155° |
| 2026-05-01 14:13 | 41.26410 | 10.95653 | 37245 ft | 485 kts | 155° |
| 2026-05-01 14:14 | 41.20251 | 10.99378 | 37233 ft | 485 kts | 156° |
| 2026-05-01 14:14 | 41.14131 | 11.03066 | 37232 ft | 486 kts | 156° |
| 2026-05-01 14:15 | 41.07975 | 11.06755 | 37231 ft | 485 kts | 156° |
| 2026-05-01 14:15 | 41.01807 | 11.10457 | 37212 ft | 485 kts | 157° |
| 2026-05-01 14:16 | 40.95644 | 11.14155 | 37214 ft | 486 kts | 157° |
| 2026-05-01 14:16 | 40.89518 | 11.17816 | 37221 ft | 486 kts | 157° |
| 2026-05-01 14:17 | 40.83344 | 11.21502 | 37226 ft | 487 kts | 157° |
| 2026-05-01 14:17 | 40.77272 | 11.25497 | 37227 ft | 488 kts | 153° |
| 2026-05-01 14:18 | 40.71327 | 11.29882 | 37238 ft | 488 kts | 152° |
| 2026-05-01 14:18 | 40.66409 | 11.33523 | 37243 ft | 489 kts | 152° |
| 2026-05-01 14:19 | 40.59412 | 11.38521 | 37234 ft | 489 kts | 153° |
| 2026-05-01 14:19 | 40.53423 | 11.42705 | 37221 ft | 490 kts | 154° |
| 2026-05-01 14:20 | 40.44377 | 11.49061 | 37227 ft | 491 kts | 153° |
| 2026-05-01 14:21 | 40.38384 | 11.53290 | 37230 ft | 491 kts | 153° |
| 2026-05-01 14:21 | 40.32363 | 11.57537 | 37203 ft | 491 kts | 154° |
| 2026-05-01 14:22 | 40.23315 | 11.63854 | 37218 ft | 491 kts | 154° |
| 2026-05-01 14:22 | 40.17312 | 11.68038 | 37254 ft | 491 kts | 154° |
| 2026-05-01 14:23 | 40.11277 | 11.72248 | 37241 ft | 491 kts | 154° |
| 2026-05-01 14:23 | 40.08252 | 11.74353 | 37126 ft | 491 kts | 154° |
| 2026-05-01 14:23 | 40.05219 | 11.76457 | 36942 ft | 492 kts | 154° |
| 2026-05-01 14:24 | 40.02194 | 11.78557 | 36749 ft | 492 kts | 154° |
| 2026-05-01 14:24 | 39.99206 | 11.80632 | 36612 ft | 493 kts | 154° |
| 2026-05-01 14:24 | 39.96177 | 11.82730 | 36351 ft | 494 kts | 154° |
| 2026-05-01 14:24 | 39.93111 | 11.84850 | 35495 ft | 500 kts | 155° |
| 2026-05-01 14:25 | 39.90040 | 11.86972 | 34946 ft | 497 kts | 155° |
| 2026-05-01 14:25 | 39.86979 | 11.89079 | 34337 ft | 496 kts | 156° |
| 2026-05-01 14:25 | 39.83888 | 11.91057 | 33766 ft | 491 kts | 159° |
| 2026-05-01 14:25 | 39.80787 | 11.92866 | 33251 ft | 486 kts | 161° |
| 2026-05-01 14:26 | 39.77671 | 11.94570 | 32734 ft | 481 kts | 162° |
| 2026-05-01 14:26 | 39.71560 | 11.97820 | 31729 ft | 474 kts | 162° |
| 2026-05-01 14:26 | 39.68520 | 11.99470 | 31216 ft | 471 kts | 161° |
| 2026-05-01 14:27 | 39.65510 | 12.01141 | 30744 ft | 468 kts | 161° |
| 2026-05-01 14:27 | 39.62526 | 12.02819 | 30225 ft | 465 kts | 161° |
| 2026-05-01 14:27 | 39.59577 | 12.04488 | 29819 ft | 460 kts | 161° |
| 2026-05-01 14:28 | 39.53797 | 12.07760 | 28863 ft | 450 kts | 162° |
| 2026-05-01 14:28 | 39.50938 | 12.09362 | 28422 ft | 445 kts | 162° |
| 2026-05-01 14:28 | 39.48101 | 12.10946 | 27978 ft | 441 kts | 162° |
| 2026-05-01 14:28 | 39.45293 | 12.12512 | 27535 ft | 437 kts | 162° |
| 2026-05-01 14:29 | 39.42509 | 12.14063 | 27100 ft | 434 kts | 162° |
| 2026-05-01 14:29 | 39.39739 | 12.15599 | 26656 ft | 431 kts | 162° |
| 2026-05-01 14:30 | 39.31557 | 12.20141 | 25276 ft | 424 kts | 161° |
| 2026-05-01 14:30 | 39.28850 | 12.21644 | 24785 ft | 424 kts | 161° |
| 2026-05-01 14:30 | 39.26167 | 12.23128 | 24328 ft | 423 kts | 161° |
| 2026-05-01 14:31 | 39.20746 | 12.26120 | 23292 ft | 423 kts | 161° |
| 2026-05-01 14:31 | 39.18041 | 12.27617 | 22808 ft | 420 kts | 160° |
| 2026-05-01 14:31 | 39.15356 | 12.29108 | 22329 ft | 418 kts | 160° |
| 2026-05-01 14:31 | 39.12716 | 12.30571 | 21866 ft | 416 kts | 160° |
| 2026-05-01 14:32 | 39.10066 | 12.32036 | 21400 ft | 414 kts | 160° |
| 2026-05-01 14:32 | 39.07413 | 12.33498 | 20934 ft | 412 kts | 160° |
| 2026-05-01 14:32 | 39.04782 | 12.34944 | 20473 ft | 410 kts | 160° |
| 2026-05-01 14:32 | 39.02183 | 12.36369 | 20023 ft | 409 kts | 159° |
| 2026-05-01 14:33 | 38.99569 | 12.37801 | 19551 ft | 407 kts | 159° |
| 2026-05-01 14:33 | 38.96962 | 12.39232 | 19140 ft | 405 kts | 159° |
| 2026-05-01 14:33 | 38.94377 | 12.40654 | 18708 ft | 403 kts | 159° |
| 2026-05-01 14:33 | 38.91816 | 12.42065 | 18450 ft | 395 kts | 159° |
| 2026-05-01 14:34 | 38.89306 | 12.43447 | 17712 ft | 387 kts | 159° |
| 2026-05-01 14:34 | 38.86908 | 12.44764 | 17311 ft | 373 kts | 159° |
| 2026-05-01 14:34 | 38.84576 | 12.46091 | 16915 ft | 360 kts | 158° |
| 2026-05-01 14:34 | 38.82338 | 12.47426 | 16535 ft | 350 kts | 157° |
| 2026-05-01 14:35 | 38.80168 | 12.48754 | 16152 ft | 340 kts | 156° |
| 2026-05-01 14:35 | 38.78060 | 12.50049 | 15786 ft | 331 kts | 156° |
| 2026-05-01 14:35 | 38.75983 | 12.51317 | 15435 ft | 330 kts | 156° |
| 2026-05-01 14:35 | 38.73911 | 12.52567 | 15078 ft | 328 kts | 156° |
| 2026-05-01 14:36 | 38.71825 | 12.53819 | 14717 ft | 330 kts | 156° |
| 2026-05-01 14:36 | 38.69743 | 12.55068 | 14358 ft | 331 kts | 156° |
| 2026-05-01 14:36 | 38.67648 | 12.56323 | 13989 ft | 333 kts | 156° |
| 2026-05-01 14:36 | 38.65565 | 12.57570 | 13583 ft | 334 kts | 156° |
| 2026-05-01 14:37 | 38.63461 | 12.58829 | 13225 ft | 333 kts | 156° |
| 2026-05-01 14:37 | 38.61362 | 12.60083 | 12844 ft | 333 kts | 156° |
| 2026-05-01 14:37 | 38.59268 | 12.61336 | 12470 ft | 332 kts | 156° |
| 2026-05-01 14:37 | 38.57173 | 12.62590 | 12078 ft | 332 kts | 155° |
| 2026-05-01 14:38 | 38.55074 | 12.63846 | 11694 ft | 332 kts | 155° |
| 2026-05-01 14:38 | 38.52982 | 12.65098 | 11315 ft | 331 kts | 155° |
| 2026-05-01 14:38 | 38.50915 | 12.66332 | 10912 ft | 331 kts | 155° |
| 2026-05-01 14:38 | 38.48826 | 12.67576 | 10515 ft | 331 kts | 155° |
| 2026-05-01 14:39 | 38.46743 | 12.68817 | 10232 ft | 326 kts | 155° |
| 2026-05-01 14:39 | 38.44709 | 12.70027 | 10128 ft | 318 kts | 155° |
| 2026-05-01 14:39 | 38.42729 | 12.71205 | 9982 ft | 308 kts | 155° |
| 2026-05-01 14:39 | 38.40835 | 12.72331 | 9831 ft | 298 kts | 155° |
| 2026-05-01 14:40 | 38.38970 | 12.73442 | 9302 ft | 294 kts | 155° |
| 2026-05-01 14:40 | 38.37158 | 12.74613 | 8773 ft | 289 kts | 143° |
| 2026-05-01 14:40 | 38.35806 | 12.76428 | 8342 ft | 279 kts | 116° |
| 2026-05-01 14:40 | 38.35210 | 12.78717 | 8051 ft | 266 kts | 90° |
| 2026-05-01 14:41 | 38.35364 | 12.80977 | 7926 ft | 257 kts | 68° |
| 2026-05-01 14:41 | 38.36027 | 12.83074 | 7793 ft | 255 kts | 62° |
| 2026-05-01 14:41 | 38.36730 | 12.85148 | 7658 ft | 254 kts | 62° |
| 2026-05-01 14:41 | 38.37426 | 12.87207 | 7482 ft | 253 kts | 63° |
| 2026-05-01 14:42 | 38.38118 | 12.89261 | 7365 ft | 251 kts | 63° |
| 2026-05-01 14:42 | 38.38808 | 12.91313 | 7225 ft | 251 kts | 63° |
| 2026-05-01 14:42 | 38.39437 | 12.93333 | 7123 ft | 242 kts | 72° |
| 2026-05-01 14:42 | 38.39382 | 12.95413 | 7023 ft | 241 kts | 107° |
| 2026-05-01 14:43 | 38.38396 | 12.97121 | 6886 ft | 245 kts | 144° |
| 2026-05-01 14:43 | 38.36874 | 12.98122 | 6760 ft | 247 kts | 154° |
| 2026-05-01 14:43 | 38.35304 | 12.99036 | 6615 ft | 247 kts | 154° |
| 2026-05-01 14:43 | 38.33730 | 12.99857 | 6476 ft | 247 kts | 167° |
| 2026-05-01 14:44 | 38.32033 | 12.99806 | 6333 ft | 245 kts | 200° |
| 2026-05-01 14:44 | 38.29789 | 12.96906 | 6085 ft | 234 kts | 251° |
| 2026-05-01 14:44 | 38.29148 | 12.94992 | 5965 ft | 235 kts | 251° |
| 2026-05-01 14:45 | 38.28512 | 12.93098 | 5832 ft | 235 kts | 251° |
| 2026-05-01 14:45 | 38.27223 | 12.89262 | 5589 ft | 235 kts | 250° |
| 2026-05-01 14:45 | 38.26575 | 12.87346 | 5463 ft | 235 kts | 250° |
| 2026-05-01 14:46 | 38.25924 | 12.85424 | 5290 ft | 238 kts | 249° |
| 2026-05-01 14:46 | 38.23460 | 12.83017 | 4911 ft | 232 kts | 183° |
| 2026-05-01 14:46 | 38.21911 | 12.83376 | 4565 ft | 223 kts | 152° |
| 2026-05-01 14:47 | 38.20491 | 12.84173 | 4275 ft | 224 kts | 152° |
| 2026-05-01 14:47 | 38.19049 | 12.84965 | 3975 ft | 225 kts | 152° |
| 2026-05-01 14:47 | 38.17626 | 12.85733 | 3706 ft | 219 kts | 152° |
| 2026-05-01 14:48 | 38.14894 | 12.87198 | 3205 ft | 208 kts | 151° |
| 2026-05-01 14:48 | 38.13600 | 12.87890 | 3165 ft | 198 kts | 153° |
| 2026-05-01 14:48 | 38.11729 | 12.89861 | 2978 ft | 159 kts | 101° |
| 2026-05-01 14:49 | 38.11918 | 12.92337 | 2675 ft | 137 kts | 62° |
| 2026-05-01 14:49 | 38.12662 | 12.94529 | 2404 ft | 134 kts | 61° |
| 2026-05-01 14:50 | 38.13164 | 12.96007 | 2204 ft | 138 kts | 61° |
| 2026-05-01 14:50 | 38.14127 | 12.98861 | 1737 ft | 128 kts | 62° |
| 2026-05-01 14:51 | 38.14478 | 12.99900 | 1548 ft | 127 kts | 62° |
| 2026-05-01 14:51 | 38.15169 | 13.01946 | 1212 ft | 125 kts | 63° |
| 2026-05-01 14:52 | 38.15855 | 13.03976 | 856 ft | 126 kts | 64° |
| 2026-05-01 14:52 | 38.16198 | 13.04994 | 706 ft | 124 kts | 63° |
| 2026-05-01 14:52 | 38.16898 | 13.07010 | 404 ft | 123 kts | 65° |
| 2026-05-01 14:53 | 38.17224 | 13.08012 | 223 ft | 123 kts | 65° |
| 2026-05-01 14:53 | 38.17551 | 13.09009 | 96 ft | 122 kts | 65° |
| 2026-05-01 14:53 | 38.17843 | 13.09871 | 69 ft | 84 kts | 67° |
| 2026-05-01 14:53 | 38.17963 | 13.10234 | 67 ft | 52 kts | 67° |
| 2026-05-01 14:54 | 38.18087 | 13.10601 | 68 ft | 41 kts | 67° |
| 2026-05-01 14:54 | 38.18168 | 13.10705 | 65 ft | 6 kts | 277° |
| 2026-05-01 14:54 | 38.18175 | 13.10644 | 69 ft | 14 kts | 278° |
| 2026-05-01 14:54 | 38.18189 | 13.10515 | 64 ft | 15 kts | 277° |
| 2026-05-01 14:55 | 38.18207 | 13.10423 | 60 ft | 9 kts | 303° |
| 2026-05-01 14:55 | 38.18247 | 13.10370 | 61 ft | 8 kts | 329° |
| 2026-05-01 14:55 | 38.18286 | 13.10354 | 65 ft | 3 kts | 31° |
| 2026-05-01 14:55 | 38.18301 | 13.10389 | 62 ft | 6 kts | 69° |
| 2026-05-01 14:56 | 38.18319 | 13.10445 | 57 ft | 8 kts | 66° |
| 2026-05-01 14:56 | 38.18360 | 13.10502 | 62 ft | 10 kts | 20° |
| 2026-05-01 14:56 | 38.18435 | 13.10531 | 57 ft | 12 kts | 34° |
| 2026-05-01 14:56 | 38.18466 | 13.10586 | 59 ft | 6 kts | 39° |
| 2026-05-01 14:57 | 38.18499 | 13.10575 | 61 ft | 5 kts | 336° |
| 2026-05-01 14:57 | 38.18528 | 13.10560 | 65 ft | 0 kts | 338° |